createdAt,value
2017-11-03T00:00:20.782Z,9.20
2017-11-03T00:02:48.326Z,9.20
2017-11-03T00:05:15.822Z,9.20
2017-11-03T00:07:44.102Z,9.30
2017-11-03T00:10:11.638Z,9.30
2017-11-03T00:12:39.147Z,9.30
2017-11-03T00:15:06.693Z,9.30
2017-11-03T00:17:34.202Z,9.30
2017-11-03T00:20:01.730Z,9.30
2017-11-03T00:22:29.222Z,9.40
2017-11-03T00:24:56.754Z,9.40
2017-11-03T00:27:24.258Z,9.40
2017-11-03T00:29:51.801Z,9.30
2017-11-03T00:32:19.298Z,9.30
2017-11-03T00:34:46.794Z,9.20
2017-11-03T00:37:14.326Z,9.20
2017-11-03T00:39:41.826Z,9.20
2017-11-03T00:42:09.356Z,9.10
2017-11-03T00:44:36.858Z,9.10
2017-11-03T00:47:04.382Z,9.20
2017-11-03T00:49:31.874Z,9.20
2017-11-03T00:52:00.176Z,9.10
2017-11-03T00:54:27.670Z,9.10
2017-11-03T00:56:55.199Z,9.10
2017-11-03T00:59:22.685Z,9.10
2017-11-03T01:01:50.209Z,9.10
2017-11-03T01:04:17.705Z,9.10
2017-11-03T01:06:45.254Z,9.10
2017-11-03T01:09:13.518Z,9.10
2017-11-03T01:11:41.007Z,9.10
2017-11-03T01:14:08.534Z,9.10
2017-11-03T01:16:36.054Z,9.10
2017-11-03T01:19:04.366Z,9.10
2017-11-03T01:21:32.626Z,9.10
2017-11-03T01:24:00.154Z,9.10
2017-11-03T01:26:27.662Z,9.10
2017-11-03T01:28:55.193Z,9.10
2017-11-03T01:31:22.689Z,9.10
2017-11-03T01:33:50.224Z,9.10
2017-11-03T01:36:17.722Z,9.00
2017-11-03T01:38:45.250Z,9.00
2017-11-03T01:41:13.511Z,9.00
2017-11-03T01:43:41.006Z,9.00
2017-11-03T01:46:08.533Z,8.90
2017-11-03T01:48:36.026Z,8.90
2017-11-03T01:51:03.559Z,8.90
2017-11-03T01:53:31.054Z,8.90
2017-11-03T01:55:58.581Z,9.00
2017-11-03T01:58:26.078Z,9.00
2017-11-03T02:00:53.623Z,9.00
2017-11-03T02:03:21.116Z,9.00
2017-11-03T02:05:48.610Z,9.00
2017-11-03T02:08:16.142Z,9.00
2017-11-03T02:10:43.634Z,9.00
2017-11-03T02:13:11.162Z,9.10
2017-11-03T02:15:39.437Z,9.10
2017-11-03T02:18:06.971Z,9.10
2017-11-03T02:20:34.462Z,9.10
2017-11-03T02:23:02.010Z,9.10
2017-11-03T02:25:29.510Z,9.10
2017-11-03T02:27:57.006Z,9.10
2017-11-03T02:30:25.304Z,9.10
2017-11-03T02:32:53.767Z,9.10
2017-11-03T02:35:21.298Z,9.10
2017-11-03T02:37:48.797Z,9.10
2017-11-03T02:40:16.327Z,9.10
2017-11-03T02:42:43.832Z,9.10
2017-11-03T02:45:25.121Z,9.10
2017-11-03T02:47:52.618Z,9.10
2017-11-03T02:50:20.142Z,9.20
2017-11-03T02:52:47.640Z,9.20
2017-11-03T02:55:15.326Z,9.20
2017-11-03T02:57:42.827Z,9.20
2017-11-03T03:00:10.321Z,9.20
2017-11-03T03:02:37.861Z,9.20
2017-11-03T03:05:05.354Z,9.20
2017-11-03T03:07:32.921Z,9.20
2017-11-03T03:10:01.178Z,9.10
2017-11-03T03:12:28.701Z,9.10
2017-11-03T03:14:56.212Z,9.10
2017-11-03T03:17:23.741Z,9.10
2017-11-03T03:19:51.233Z,9.10
2017-11-03T03:22:18.911Z,9.10
2017-11-03T03:24:46.401Z,9.10
2017-11-03T03:27:13.893Z,9.10
2017-11-03T03:29:41.418Z,9.10
2017-11-03T03:32:08.917Z,9.00
2017-11-03T03:34:36.446Z,9.00
2017-11-03T03:37:03.945Z,9.00
2017-11-03T03:39:31.478Z,9.00
2017-11-03T03:41:59.737Z,9.00
2017-11-03T03:44:27.270Z,9.00
2017-11-03T03:46:54.758Z,9.00
2017-11-03T03:49:22.286Z,9.10
2017-11-03T03:51:49.774Z,9.10
2017-11-03T03:54:17.302Z,9.10
2017-11-03T03:56:44.793Z,9.10
2017-11-03T03:59:12.288Z,9.10
2017-11-03T04:01:39.826Z,9.00
2017-11-03T04:04:08.081Z,9.00
2017-11-03T04:06:35.604Z,9.00
2017-11-03T04:09:03.102Z,9.00
2017-11-03T04:11:30.631Z,9.00
2017-11-03T04:13:58.119Z,9.00
2017-11-03T04:16:25.643Z,9.10
2017-11-03T04:18:53.138Z,9.10
2017-11-03T04:21:21.434Z,9.10
2017-11-03T04:23:49.703Z,9.10
2017-11-03T04:26:17.249Z,9.10
2017-11-03T04:28:44.740Z,9.10
2017-11-03T04:31:12.233Z,9.10
2017-11-03T04:33:40.530Z,9.10
2017-11-03T04:36:08.030Z,9.10
2017-11-03T04:38:35.558Z,9.10
2017-11-03T04:41:03.049Z,9.10
2017-11-03T04:43:30.589Z,9.10
2017-11-03T04:45:58.114Z,9.10
2017-11-03T04:48:25.654Z,9.10
2017-11-03T04:50:53.913Z,9.10
2017-11-03T04:53:21.406Z,9.10
2017-11-03T04:55:48.940Z,9.10
2017-11-03T04:58:16.430Z,9.10
2017-11-03T05:00:43.957Z,9.20
2017-11-03T05:03:11.445Z,9.20
2017-11-03T05:05:38.982Z,9.20
2017-11-03T05:08:06.479Z,9.20
2017-11-03T05:10:34.006Z,9.20
2017-11-03T05:13:01.494Z,9.20
2017-11-03T05:15:29.999Z,9.20
2017-11-03T05:17:57.530Z,9.20
2017-11-03T05:20:25.030Z,9.20
2017-11-03T05:22:53.353Z,9.10
2017-11-03T05:25:20.876Z,9.10
2017-11-03T05:27:48.461Z,9.10
2017-11-03T05:30:16.735Z,9.00
2017-11-03T05:32:45.284Z,9.10
2017-11-03T05:35:12.788Z,9.00
2017-11-03T05:37:40.369Z,9.00
2017-11-03T05:40:07.870Z,9.00
2017-11-03T05:42:35.414Z,9.00
2017-11-03T05:45:02.902Z,9.10
2017-11-03T05:47:31.162Z,9.00
2017-11-03T05:49:58.694Z,9.00
2017-11-03T05:52:26.189Z,9.00
2017-11-03T05:54:53.710Z,9.00
2017-11-03T05:57:21.974Z,9.00
2017-11-03T05:59:49.507Z,9.00
2017-11-03T06:02:16.998Z,8.90
2017-11-03T06:04:44.550Z,8.90
2017-11-03T06:07:12.040Z,8.90
2017-11-03T06:09:39.535Z,8.90
2017-11-03T06:12:07.062Z,8.90
2017-11-03T06:14:34.557Z,8.90
2017-11-03T06:17:02.099Z,8.90
2017-11-03T06:19:29.597Z,8.90
2017-11-03T06:21:57.129Z,8.90
2017-11-03T06:24:24.622Z,8.90
2017-11-03T06:26:52.149Z,8.90
2017-11-03T06:29:19.635Z,8.90
2017-11-03T06:31:47.170Z,8.80
2017-11-03T06:34:14.688Z,8.80
2017-11-03T06:36:42.318Z,8.80
2017-11-03T06:39:09.815Z,8.80
2017-11-03T06:41:38.070Z,8.90
2017-11-03T06:44:05.610Z,8.80
2017-11-03T06:46:33.103Z,8.80
2017-11-03T06:49:00.629Z,8.90
2017-11-03T06:51:28.127Z,8.80
2017-11-03T06:53:56.467Z,8.90
2017-11-03T06:56:24.725Z,8.90
2017-11-03T06:58:52.255Z,8.80
2017-11-03T07:01:19.746Z,8.90
2017-11-03T07:03:47.288Z,8.90
2017-11-03T07:06:15.546Z,8.90
2017-11-03T07:08:43.070Z,8.90
2017-11-03T07:11:10.577Z,9.00
2017-11-03T07:13:38.114Z,9.10
2017-11-03T07:16:05.672Z,9.10
2017-11-03T07:18:33.170Z,9.20
2017-11-03T07:21:00.701Z,9.20
2017-11-03T07:23:28.963Z,9.30
2017-11-03T07:25:56.497Z,9.20
2017-11-03T07:28:23.992Z,9.30
2017-11-03T07:30:51.518Z,9.30
2017-11-03T07:33:19.018Z,9.40
2017-11-03T07:35:46.573Z,9.40
2017-11-03T07:38:14.071Z,9.50
2017-11-03T07:40:41.569Z,9.50
2017-11-03T07:43:09.094Z,9.50
2017-11-03T07:45:36.584Z,9.60
2017-11-03T07:48:04.114Z,9.60
2017-11-03T07:50:31.642Z,9.60
2017-11-03T07:52:59.173Z,9.70
2017-11-03T07:55:26.665Z,9.70
2017-11-03T07:57:54.193Z,9.80
2017-11-03T08:00:21.689Z,9.80
2017-11-03T08:02:49.234Z,9.90
2017-11-03T08:05:17.498Z,10.00
2017-11-03T08:07:44.998Z,10.00
2017-11-03T08:10:13.296Z,10.10
2017-11-03T08:12:40.794Z,10.10
2017-11-03T08:15:08.326Z,10.20
2017-11-03T08:17:36.594Z,10.30
2017-11-03T08:20:04.125Z,10.30
2017-11-03T08:22:31.632Z,10.60
2017-11-03T08:24:59.161Z,11.20
2017-11-03T08:27:26.662Z,11.90
2017-11-03T08:29:54.190Z,12.30
2017-11-03T08:32:21.737Z,12.40
2017-11-03T08:34:50.012Z,12.20
2017-11-03T08:37:17.541Z,12.20
2017-11-03T08:39:45.042Z,11.80
2017-11-03T08:42:12.569Z,11.70
2017-11-03T08:44:40.074Z,11.70
2017-11-03T08:47:07.606Z,11.70
2017-11-03T08:49:35.113Z,12.00
2017-11-03T08:52:02.649Z,12.70
2017-11-03T08:54:30.177Z,13.10
2017-11-03T08:56:57.730Z,13.10
2017-11-03T08:59:25.225Z,13.90
2017-11-03T09:01:52.725Z,14.90
2017-11-03T09:04:21.036Z,15.20
2017-11-03T09:06:48.537Z,15.20
2017-11-03T09:09:16.078Z,15.70
2017-11-03T09:11:43.578Z,15.50
2017-11-03T09:14:11.109Z,14.80
2017-11-03T09:16:39.017Z,14.20
2017-11-03T09:19:06.558Z,13.90
2017-11-03T09:21:34.049Z,13.90
2017-11-03T09:24:01.602Z,13.90
2017-11-03T09:26:29.869Z,13.70
2017-11-03T09:28:57.367Z,13.60
2017-11-03T09:31:24.899Z,14.70
2017-11-03T09:33:52.406Z,16.00
2017-11-03T09:36:20.705Z,18.30
2017-11-03T09:38:48.206Z,18.30
2017-11-03T09:41:15.737Z,18.80
2017-11-03T09:43:44.006Z,18.80
2017-11-03T09:46:11.531Z,18.80
2017-11-03T09:48:39.031Z,19.00
2017-11-03T09:51:06.574Z,18.90
2017-11-03T09:53:34.073Z,19.50
2017-11-03T09:56:01.623Z,20.20
2017-11-03T09:58:29.287Z,20.30
2017-11-03T10:00:56.786Z,20.40
2017-11-03T10:03:24.305Z,20.00
2017-11-03T10:05:52.570Z,19.90
2017-11-03T10:08:20.103Z,19.90
2017-11-03T10:10:47.598Z,19.90
2017-11-03T10:13:15.140Z,19.70
2017-11-03T10:15:42.668Z,19.90
2017-11-03T10:18:10.965Z,20.30
2017-11-03T10:20:39.233Z,20.00
2017-11-03T10:23:06.785Z,20.00
2017-11-03T10:25:34.281Z,19.80
2017-11-03T10:28:01.773Z,19.50
2017-11-03T10:30:30.071Z,20.20
2017-11-03T10:32:58.329Z,20.00
2017-11-03T10:35:25.865Z,19.90
2017-11-03T10:37:53.365Z,20.10
2017-11-03T10:40:20.907Z,19.70
2017-11-03T10:42:48.401Z,19.70
2017-11-03T10:45:16.845Z,19.80
2017-11-03T10:47:45.110Z,19.60
2017-11-03T10:50:12.605Z,19.60
2017-11-03T10:52:40.898Z,19.50
2017-11-03T10:55:09.166Z,18.80
2017-11-03T10:57:36.700Z,18.70
2017-11-03T11:00:04.197Z,17.80
2017-11-03T11:02:31.765Z,17.10
2017-11-03T11:04:59.265Z,16.30
2017-11-03T11:07:26.813Z,15.80
2017-11-03T11:09:54.310Z,15.60
2017-11-03T11:12:22.634Z,15.40
2017-11-03T11:14:50.137Z,15.30
2017-11-03T11:17:17.635Z,15.40
2017-11-03T11:19:45.967Z,15.00
2017-11-03T11:22:13.470Z,15.00
2017-11-03T11:24:40.998Z,15.00
2017-11-03T11:27:08.494Z,14.80
2017-11-03T11:29:36.029Z,14.80
2017-11-03T11:32:03.568Z,14.70
2017-11-03T11:34:31.183Z,14.60
2017-11-03T11:36:58.681Z,14.60
2017-11-03T11:39:26.178Z,14.60
2017-11-03T11:41:53.801Z,14.60
2017-11-03T11:44:21.313Z,14.50
2017-11-03T11:46:48.862Z,14.50
2017-11-03T11:49:16.354Z,14.50
2017-11-03T11:51:43.883Z,14.50
2017-11-03T11:54:11.401Z,14.40
2017-11-03T11:56:38.933Z,14.40
2017-11-03T11:59:06.430Z,14.30
2017-11-03T12:01:33.982Z,14.20
2017-11-03T12:04:01.482Z,14.20
2017-11-03T12:06:28.987Z,14.30
2017-11-03T12:08:56.520Z,14.40
2017-11-03T12:11:24.018Z,14.40
2017-11-03T12:13:51.552Z,14.40
2017-11-03T12:16:19.049Z,14.50
2017-11-03T12:18:46.586Z,14.50
2017-11-03T12:21:14.089Z,14.50
2017-11-03T12:23:41.659Z,14.40
2017-11-03T12:26:09.186Z,14.40
2017-11-03T12:28:36.725Z,14.40
2017-11-03T12:31:04.222Z,14.40
2017-11-03T12:33:32.534Z,14.40
2017-11-03T12:36:00.035Z,14.40
2017-11-03T12:38:27.533Z,14.50
2017-11-03T12:40:55.062Z,14.60
2017-11-03T12:43:23.398Z,14.60
2017-11-03T12:45:50.949Z,14.60
2017-11-03T12:48:19.225Z,14.40
2017-11-03T12:50:46.760Z,14.40
2017-11-03T12:53:14.295Z,14.20
2017-11-03T12:55:41.845Z,14.00
2017-11-03T12:58:09.346Z,13.80
2017-11-03T13:00:36.890Z,13.90
2017-11-03T13:03:04.382Z,13.90
2017-11-03T13:05:31.893Z,14.00
2017-11-03T13:07:59.423Z,14.30
2017-11-03T13:10:26.921Z,14.30
2017-11-03T13:12:54.462Z,14.20
2017-11-03T13:15:21.960Z,14.10
2017-11-03T13:17:49.769Z,14.00
2017-11-03T13:20:17.274Z,13.90
2017-11-03T13:22:44.798Z,13.80
2017-11-03T13:25:13.082Z,13.70
2017-11-03T13:27:41.394Z,13.60
2017-11-03T13:30:08.902Z,13.60
2017-11-03T13:32:36.404Z,13.70
2017-11-03T13:35:04.697Z,13.70
2017-11-03T13:37:32.953Z,13.80
2017-11-03T13:40:00.481Z,13.80
2017-11-03T13:42:27.982Z,13.90
2017-11-03T13:44:55.531Z,14.00
2017-11-03T13:47:23.032Z,14.10
2017-11-03T13:49:50.533Z,14.10
2017-11-03T13:52:18.086Z,14.10
2017-11-03T13:54:45.583Z,14.10
2017-11-03T13:57:14.710Z,13.90
2017-11-03T13:59:42.210Z,13.90
2017-11-03T14:02:09.750Z,13.90
2017-11-03T14:04:38.010Z,13.80
2017-11-03T14:07:05.534Z,13.80
2017-11-03T14:09:33.034Z,13.90
2017-11-03T14:12:00.581Z,13.80
2017-11-03T14:14:28.082Z,13.80
2017-11-03T14:16:55.582Z,13.80
2017-11-03T14:19:23.123Z,13.70
2017-11-03T14:21:50.717Z,13.60
2017-11-03T14:24:19.386Z,13.60
2017-11-03T14:26:46.881Z,13.60
2017-11-03T14:29:14.419Z,13.60
2017-11-03T14:31:41.921Z,13.50
2017-11-03T14:34:09.445Z,13.50
2017-11-03T14:36:36.946Z,13.40
2017-11-03T14:39:04.490Z,13.30
2017-11-03T14:41:31.990Z,13.30
2017-11-03T14:43:59.487Z,13.20
2017-11-03T14:46:27.022Z,13.20
2017-11-03T14:48:54.524Z,13.10
2017-11-03T14:51:22.065Z,13.10
2017-11-03T14:53:49.566Z,13.10
2017-11-03T14:56:17.104Z,13.10
2017-11-03T14:58:44.598Z,13.10
2017-11-03T15:01:12.129Z,13.10
2017-11-03T15:03:40.783Z,13.10
2017-11-03T15:06:08.310Z,13.00
2017-11-03T15:08:35.810Z,13.00
2017-11-03T15:11:03.342Z,12.90
2017-11-03T15:13:30.837Z,13.00
2017-11-03T15:15:58.366Z,12.90
2017-11-03T15:18:26.626Z,12.90
2017-11-03T15:20:54.130Z,12.80
2017-11-03T15:23:21.661Z,12.90
2017-11-03T15:25:49.158Z,12.80
2017-11-03T15:28:16.694Z,12.70
2017-11-03T15:30:44.181Z,12.70
2017-11-03T15:33:11.715Z,12.60
2017-11-03T15:35:39.202Z,12.50
2017-11-03T15:38:06.725Z,12.40
2017-11-03T15:40:34.980Z,12.20
2017-11-03T15:43:02.502Z,12.20
2017-11-03T15:45:30.027Z,12.10
2017-11-03T15:47:57.518Z,11.90
2017-11-03T15:50:25.805Z,11.70
2017-11-03T15:52:54.061Z,11.60
2017-11-03T15:55:21.606Z,11.50
2017-11-03T15:57:49.097Z,11.40
2017-11-03T16:00:16.590Z,11.30
2017-11-03T16:02:44.111Z,11.00
2017-11-03T16:05:11.609Z,10.90
2017-11-03T16:07:39.904Z,10.60
2017-11-03T16:10:07.394Z,10.50
2017-11-03T16:12:34.918Z,10.40
2017-11-03T16:15:02.414Z,10.20
2017-11-03T16:17:29.933Z,10.10
2017-11-03T16:19:57.430Z,10.00
2017-11-03T16:22:24.949Z,9.90
2017-11-03T16:24:52.471Z,9.70
2017-11-03T16:27:20.011Z,9.60
2017-11-03T16:29:48.261Z,9.40
2017-11-03T16:32:15.754Z,9.40
2017-11-03T16:34:43.288Z,9.20
2017-11-03T16:37:10.786Z,9.10
2017-11-03T16:39:38.313Z,9.10
2017-11-03T16:42:05.810Z,9.00
2017-11-03T16:44:33.330Z,9.10
2017-11-03T16:47:01.594Z,9.00
2017-11-03T16:49:29.118Z,9.00
2017-11-03T16:51:56.609Z,9.00
2017-11-03T16:54:24.153Z,9.00
2017-11-03T16:56:51.646Z,9.00
2017-11-03T16:59:19.134Z,9.10
2017-11-03T17:01:46.657Z,9.10
2017-11-03T17:04:14.149Z,9.10
2017-11-03T17:06:41.678Z,9.10
2017-11-03T17:09:09.165Z,9.10
2017-11-03T17:11:37.455Z,9.20
2017-11-03T17:14:05.718Z,9.10
2017-11-03T17:16:33.249Z,9.10
2017-11-03T17:19:00.762Z,9.10
2017-11-03T17:21:28.290Z,9.10
2017-11-03T17:23:55.794Z,9.10
2017-11-03T17:26:23.330Z,9.00
2017-11-03T17:28:50.813Z,9.00
2017-11-03T17:31:18.322Z,9.00
2017-11-03T17:33:45.845Z,8.90
2017-11-03T17:36:13.337Z,8.90
2017-11-03T17:38:40.862Z,8.80
2017-11-03T17:41:09.122Z,8.70
2017-11-03T17:43:36.662Z,8.70
2017-11-03T17:46:04.174Z,8.60
2017-11-03T17:48:31.693Z,8.50
2017-11-03T17:50:59.186Z,8.40
2017-11-03T17:53:26.710Z,8.30
2017-11-03T17:55:54.967Z,8.20
2017-11-03T17:58:22.490Z,8.20
2017-11-03T18:00:49.986Z,8.20
2017-11-03T18:03:17.522Z,8.10
2017-11-03T18:05:45.026Z,8.10
2017-11-03T18:08:13.329Z,7.90
2017-11-03T18:10:40.849Z,7.90
2017-11-03T18:13:08.378Z,7.90
2017-11-03T18:15:35.906Z,7.80
2017-11-03T18:18:03.398Z,7.70
2017-11-03T18:20:30.953Z,7.70
2017-11-03T18:22:58.458Z,7.60
2017-11-03T18:25:26.002Z,7.60
2017-11-03T18:27:53.488Z,7.50
2017-11-03T18:30:20.981Z,7.40
2017-11-03T18:32:48.529Z,7.40
2017-11-03T18:35:16.021Z,7.40
2017-11-03T18:37:43.544Z,7.40
2017-11-03T18:40:11.038Z,7.30
2017-11-03T18:42:38.563Z,7.30
2017-11-03T18:45:06.822Z,7.20
2017-11-03T18:47:34.354Z,7.20
2017-11-03T18:50:01.850Z,7.10
2017-11-03T18:52:29.385Z,7.10
2017-11-03T18:54:56.882Z,7.00
2017-11-03T18:57:24.370Z,7.00
2017-11-03T18:59:51.899Z,7.00
2017-11-03T19:02:20.313Z,6.90
2017-11-03T19:04:47.842Z,6.90
2017-11-03T19:07:16.102Z,6.80
2017-11-03T19:09:43.625Z,6.80
2017-11-03T19:12:11.122Z,6.80
2017-11-03T19:14:38.661Z,6.80
2017-11-03T19:17:06.153Z,6.80
2017-11-03T19:19:33.645Z,6.80
2017-11-03T19:22:01.172Z,6.70
2017-11-03T19:24:30.420Z,6.70
2017-11-03T19:26:57.982Z,6.70
2017-11-03T19:29:25.490Z,6.70
2017-11-03T19:31:53.174Z,6.60
2017-11-03T19:34:20.670Z,6.60
2017-11-03T19:36:48.185Z,6.60
2017-11-03T19:39:15.713Z,6.70
2017-11-03T19:41:44.021Z,7.00
2017-11-03T19:44:11.612Z,7.00
2017-11-03T19:46:39.747Z,7.00
2017-11-03T19:49:07.317Z,7.00
2017-11-03T19:51:34.811Z,7.00
2017-11-03T19:54:03.118Z,7.10
2017-11-03T19:56:30.609Z,7.10
2017-11-03T19:58:58.939Z,7.10
2017-11-03T20:01:26.434Z,7.20
2017-11-03T20:03:54.741Z,7.20
2017-11-03T20:06:22.237Z,7.10
2017-11-03T20:08:49.729Z,7.10
2017-11-03T20:11:17.283Z,7.00
2017-11-03T20:13:44.992Z,7.00
2017-11-03T20:16:13.303Z,7.00
2017-11-03T20:18:41.558Z,6.90
2017-11-03T20:21:09.089Z,6.90
2017-11-03T20:23:36.593Z,6.90
2017-11-03T20:26:04.122Z,6.90
2017-11-03T20:28:32.387Z,6.80
2017-11-03T20:30:59.936Z,6.80
2017-11-03T20:33:27.442Z,6.80
2017-11-03T20:35:54.974Z,6.70
2017-11-03T20:38:22.470Z,6.70
2017-11-03T20:40:50.025Z,6.70
2017-11-03T20:43:17.522Z,6.70
2017-11-03T20:45:45.066Z,6.70
2017-11-03T20:48:12.570Z,6.60
2017-11-03T20:50:40.862Z,6.60
2017-11-03T20:53:08.385Z,6.60
2017-11-03T20:55:35.886Z,6.60
2017-11-03T20:58:03.462Z,6.50
2017-11-03T21:00:30.958Z,6.50
2017-11-03T21:02:59.254Z,6.50
2017-11-03T21:05:27.514Z,6.50
2017-11-03T21:07:55.050Z,6.50
2017-11-03T21:10:22.879Z,6.40
2017-11-03T21:12:51.206Z,6.20
2017-11-03T21:15:19.482Z,6.10
2017-11-03T21:17:47.025Z,6.10
2017-11-03T21:20:14.519Z,6.10
2017-11-03T21:22:42.014Z,6.10
2017-11-03T21:25:09.554Z,6.00
2017-11-03T21:27:37.814Z,5.90
2017-11-03T21:30:05.342Z,5.90
2017-11-03T21:32:32.843Z,5.80
2017-11-03T21:35:00.379Z,5.70
2017-11-03T21:37:27.882Z,5.70
2017-11-03T21:39:55.421Z,5.80
2017-11-03T21:42:23.689Z,6.00
2017-11-03T21:44:51.234Z,6.00
2017-11-03T21:47:18.741Z,6.00
2017-11-03T21:49:46.239Z,6.10
2017-11-03T21:52:13.762Z,6.10
2017-11-03T21:54:41.288Z,6.10
2017-11-03T21:57:08.823Z,6.00
2017-11-03T21:59:36.317Z,6.00
2017-11-03T22:02:04.623Z,5.90
2017-11-03T22:04:32.128Z,5.90
2017-11-03T22:06:59.654Z,5.90
2017-11-03T22:09:27.918Z,5.80
2017-11-03T22:11:55.442Z,5.80
2017-11-03T22:14:22.948Z,5.70
2017-11-03T22:16:50.498Z,5.50
2017-11-03T22:19:17.992Z,5.40
2017-11-03T22:21:45.487Z,5.40
2017-11-03T22:24:13.017Z,5.40
2017-11-03T22:26:41.274Z,5.20
2017-11-03T22:29:08.810Z,5.20
2017-11-03T22:31:36.306Z,5.20
2017-11-03T22:34:04.606Z,5.20
2017-11-03T22:36:32.874Z,5.20
2017-11-03T22:39:00.426Z,5.20
2017-11-03T22:41:27.917Z,5.20
2017-11-03T22:43:55.443Z,5.20
2017-11-03T22:46:22.997Z,5.20
2017-11-03T22:48:50.494Z,5.20
2017-11-03T22:51:18.027Z,5.20
2017-11-03T22:53:45.521Z,5.30
2017-11-03T22:56:13.058Z,5.30
2017-11-03T22:58:41.322Z,5.20
2017-11-03T23:01:08.866Z,5.20
2017-11-03T23:03:36.367Z,5.20
2017-11-03T23:06:03.922Z,5.20
2017-11-03T23:08:31.414Z,5.20
2017-11-03T23:10:58.921Z,5.20
2017-11-03T23:13:27.221Z,5.30
2017-11-03T23:15:54.717Z,5.30
2017-11-03T23:18:22.250Z,5.30
2017-11-03T23:20:50.518Z,5.40
2017-11-03T23:23:18.045Z,5.40
2017-11-03T23:25:45.550Z,5.40
2017-11-03T23:28:13.078Z,5.40
2017-11-03T23:30:40.569Z,5.40
2017-11-03T23:33:08.109Z,5.50
2017-11-03T23:35:36.365Z,5.60
2017-11-03T23:38:03.875Z,5.60
2017-11-03T23:40:31.402Z,5.80
2017-11-03T23:42:58.894Z,5.90
2017-11-03T23:45:27.197Z,6.10
2017-11-03T23:47:55.458Z,6.10
2017-11-03T23:50:23.010Z,6.10
2017-11-03T23:52:50.553Z,6.10
2017-11-03T23:55:18.098Z,6.10
2017-11-03T23:57:45.594Z,6.10
